ADDS METAR Data INFO
IDs: Format: Raw Decoded Include TAF

Data at: 2004 UTC 19 Oct 2017

KANB 191953Z AUTO 11004KT 10SM CLR 24/11 A3024 RMK AO2 SLP236 T02390106
KANB 191853Z AUTO 10SM CLR 23/10 A3025 RMK AO2 SLP241 T02330100
KANB 191753Z AUTO 09005KT 10SM CLR 22/10 A3028 RMK AO2 SLP252 T02170100 10217 20083 58020
KANB 191653Z AUTO 05004KT 10SM CLR 21/10 A3031 RMK AO2 SLP264 T02110100
KANB 191553Z AUTO 07006KT 10SM CLR 18/09 A3033 RMK AO2 SLP269 T01830094
KANB 191453Z AUTO 05007KT 10SM CLR 16/07 A3034 RMK AO2 SLP275 T01610072 51018
KANB 191353Z AUTO 05007KT 10SM CLR 13/08 A3033 RMK AO2 SLP272 T01280083
KANB 191253Z AUTO 04004KT 10SM CLR 10/07 A3031 RMK AO2 SLP267 T01000067
KANB 191153Z AUTO 03006KT 10SM CLR 08/06 A3029 RMK AO2 SLP258 T00830061 10111 20083 51009
KANB 191053Z AUTO 04006KT 10SM CLR 09/06 A3028 RMK AO2 SLP255 T00890061
KANB 190953Z AUTO 05006KT 10SM CLR 09/07 A3027 RMK AO2 SLP251 T00940067
KANB 190853Z AUTO 05003KT 10SM CLR 09/07 A3026 RMK AO2 SLP245 T00940072 58003
KANB 190753Z AUTO 05003KT 10SM CLR 10/07 A3027 RMK AO2 SLP249 T01000072
KANB 190653Z AUTO 04003KT 10SM CLR 11/08 A3027 RMK AO2 SLP248 T01060078
KANB 190553Z AUTO 05003KT 10SM CLR 11/08 A3027 RMK AO2 SLP248 T01060083 10156 20106 402280083 58004
KANB 190453Z AUTO 04006KT 10SM CLR 12/09 A3028 RMK AO2 SLP252 T01220089
KANB 190353Z AUTO 05004KT 10SM CLR 12/09 A3029 RMK AO2 SLP255 T01220094
KANB 190253Z AUTO 07003KT 10SM CLR 12/10 A3028 RMK AO2 SLP255 T01170100 51010
KANB 190153Z AUTO 00000KT 10SM CLR 12/10 A3028 RMK AO2 SLP255 T01220100
KANB 190053Z AUTO 08004KT 10SM CLR 14/11 A3026 RMK AO2 SLP249 T01390106
KANB 182353Z AUTO 07003KT 10SM CLR 16/10 A3025 RMK AO2 SLP246 T01560100 10228 20156 53006
KANB 182253Z AUTO 00000KT 10SM CLR 20/08 A3024 RMK AO2 SLP240 T02000083
KANB 182153Z AUTO 09006KT 10SM CLR 22/08 A3023 RMK AO2 SLP236 T02170078
KANB 182053Z AUTO VRB03KT 10SM CLR 22/08 A3023 RMK AO2 SLP237 T02220078 56020
KANB 181953Z AUTO VRB05KT 10SM CLR 23/07 A3025 RMK AO2 SLP240 T02280072
KANB 181853Z AUTO 04007KT 010V090 10SM CLR 22/07 A3026 RMK AO2 SLP247 T02220067
KANB 181753Z AUTO VRB04KT 10SM CLR 21/07 A3029 RMK AO2 SLP257 T02110072 10211 20083 58016
KANB 181653Z AUTO 10009KT 10SM CLR 19/07 A3032 RMK AO2 SLP268 T01940072
KANB 181553Z AUTO 10009KT 10SM CLR 18/07 A3033 RMK AO2 SLP272 T01780072
KANB 181453Z AUTO 06007KT 10SM CLR 15/08 A3034 RMK AO2 SLP276 T01500078 51008
KANB 181353Z AUTO 07006KT 10SM CLR 12/07 A3033 RMK AO2 SLP275 T01170072
KANB 181253Z AUTO 05008KT 10SM CLR 09/07 A3033 RMK AO2 SLP273 T00940067
KANB 181153Z AUTO 05004KT 10SM CLR 08/06 A3032 RMK AO2 SLP268 T00830056 10100 20083 51012
KANB 181053Z AUTO 05004KT 10SM CLR 08/06 A3030 RMK AO2 SLP262 T00830061
KANB 180953Z AUTO 05004KT 10SM CLR 09/06 A3030 RMK AO2 SLP259 T00890061
KANB 180853Z AUTO 04003KT 10SM CLR 09/07 A3028 RMK AO2 SLP253 T00890067 55000